Pagina principală
METAR-TAF:

METAR-TAF

Aeroporturi :

Varna, Bulgaria

Latitudine: 43-12N, longitudine: 027-55E, elevație: 41 m

Observații meteo curente

Raportul a fost făcut în urmă cu 31 de minute, la 13:30 UTC
Vânt 10 kt de la Nord-vest
Temperatură 27°C
Umiditate 48%
Presiune 1010 hPa
Vizibilitate de 10 km sau mai mult
Nori împrăștiați la o înălțime de 4400 picior

METAR: LBWN 151330Z 32010KT 9999 SCT044 27/15 Q1010 NOSIG

Ora: 17:01 (14:01 UTC)

Prognoză

Raportul a fost făcut în urmă cu 3 ore și 1 de minute, la 11:00 UTC
Prognoză valabilă de la 15 ora 12 UTC la 16 ora 12 UTC
Vânt 14 kt de la Nord-vest
Vizibilitate de 10 km sau mai mult
Nori împrăștiați la o înălțime de 4000 picior
Devenind
de la 15 ora 15 UTC la 15 ora 17 UTC
Vânt 4 kt din direcții variabile
Devenind
de la 16 ora 07 UTC la 16 ora 09 UTC
Vânt 14 kt de la Est/Sud-est

TAF: LBWN 151100Z 1512/1612 32014KT 9999 SCT040 BECMG 1515/1517 VRB04KT BECMG 1607/1609 12014KT

Observații și prognoze meteo pentru peste 4.000 de aeroporturi (rapoarte METAR și TAF).

Stațiile disponibile sunt reprezentate pe hartă prin puncte galbene și roșii.

Țineți indicatorul mouse-ului pe punctul dorit pentru a vedea denumirea stației.

Apoi, faceți clic pentru a vedea observațiile și prognozele meteorologice.

Pentru a schimba harta: Pentru mărire, faceți clic pe butoanele verzi cu cruce neagră; pentru micșorare, pe butonul verde cu o liniuță; pentru hărți învecinate, pe săgețile verzi.


METAR-TAF: